sensor_id;sensor_type;location;lat;lon;timestamp;temperature;humidity
12329;DHT22;6230;52.390;10.256;2023-09-12T00:00:44;26.80;49.00
12329;DHT22;6230;52.390;10.256;2023-09-12T00:03:11;26.80;49.10
12329;DHT22;6230;52.390;10.256;2023-09-12T00:05:37;26.70;49.10
12329;DHT22;6230;52.390;10.256;2023-09-12T00:08:02;26.70;49.10
12329;DHT22;6230;52.390;10.256;2023-09-12T00:10:29;26.70;49.20
12329;DHT22;6230;52.390;10.256;2023-09-12T00:12:55;26.60;49.20
12329;DHT22;6230;52.390;10.256;2023-09-12T00:15:21;26.60;49.20
12329;DHT22;6230;52.390;10.256;2023-09-12T00:17:46;26.60;49.20
12329;DHT22;6230;52.390;10.256;2023-09-12T00:20:14;26.50;49.20
12329;DHT22;6230;52.390;10.256;2023-09-12T00:22:39;26.50;49.10
12329;DHT22;6230;52.390;10.256;2023-09-12T00:25:05;26.40;49.30
12329;DHT22;6230;52.390;10.256;2023-09-12T00:27:31;26.40;49.40
12329;DHT22;6230;52.390;10.256;2023-09-12T00:29:56;26.30;49.40
12329;DHT22;6230;52.390;10.256;2023-09-12T00:32:22;26.30;49.50
12329;DHT22;6230;52.390;10.256;2023-09-12T00:34:47;26.30;49.50
12329;DHT22;6230;52.390;10.256;2023-09-12T00:37:13;26.30;49.50
12329;DHT22;6230;52.390;10.256;2023-09-12T00:39:38;26.30;49.50
12329;DHT22;6230;52.390;10.256;2023-09-12T00:42:04;26.30;49.40
12329;DHT22;6230;52.390;10.256;2023-09-12T00:44:33;26.30;49.40
12329;DHT22;6230;52.390;10.256;2023-09-12T00:46:58;26.40;49.40
12329;DHT22;6230;52.390;10.256;2023-09-12T00:49:25;26.40;49.40
12329;DHT22;6230;52.390;10.256;2023-09-12T00:51:51;26.40;49.30
12329;DHT22;6230;52.390;10.256;2023-09-12T00:54:17;26.40;49.30
12329;DHT22;6230;52.390;10.256;2023-09-12T00:56:43;26.40;49.30
12329;DHT22;6230;52.390;10.256;2023-09-12T00:59:10;26.40;49.30
12329;DHT22;6230;52.390;10.256;2023-09-12T01:01:36;26.40;49.30
12329;DHT22;6230;52.390;10.256;2023-09-12T01:04:02;26.30;49.40
12329;DHT22;6230;52.390;10.256;2023-09-12T01:06:29;26.20;49.50
12329;DHT22;6230;52.390;10.256;2023-09-12T01:08:55;26.20;49.60
12329;DHT22;6230;52.390;10.256;2023-09-12T01:11:22;26.10;49.50
12329;DHT22;6230;52.390;10.256;2023-09-12T01:13:47;26.10;49.60
12329;DHT22;6230;52.390;10.256;2023-09-12T01:16:13;26.10;49.60
12329;DHT22;6230;52.390;10.256;2023-09-12T01:18:39;26.10;49.70
12329;DHT22;6230;52.390;10.256;2023-09-12T01:21:14;26.00;49.60
12329;DHT22;6230;52.390;10.256;2023-09-12T01:24:15;26.00;49.60
12329;DHT22;6230;52.390;10.256;2023-09-12T01:26:59;26.00;49.80
12329;DHT22;6230;52.390;10.256;2023-09-12T01:29:30;26.00;49.70
12329;DHT22;6230;52.390;10.256;2023-09-12T01:31:57;25.90;49.70
12329;DHT22;6230;52.390;10.256;2023-09-12T01:34:24;25.90;49.80
12329;DHT22;6230;52.390;10.256;2023-09-12T01:36:49;25.90;49.90
12329;DHT22;6230;52.390;10.256;2023-09-12T01:39:15;25.80;49.80
12329;DHT22;6230;52.390;10.256;2023-09-12T01:41:43;25.80;49.90
12329;DHT22;6230;52.390;10.256;2023-09-12T01:44:12;25.80;50.00
12329;DHT22;6230;52.390;10.256;2023-09-12T01:46:38;25.70;49.90
12329;DHT22;6230;52.390;10.256;2023-09-12T01:49:05;25.70;50.00
12329;DHT22;6230;52.390;10.256;2023-09-12T01:51:33;25.60;50.00
12329;DHT22;6230;52.390;10.256;2023-09-12T01:53:59;25.60;50.00
12329;DHT22;6230;52.390;10.256;2023-09-12T01:56:26;25.60;50.10
12329;DHT22;6230;52.390;10.256;2023-09-12T01:58:51;25.60;50.10
12329;DHT22;6230;52.390;10.256;2023-09-12T02:01:17;25.60;50.10
12329;DHT22;6230;52.390;10.256;2023-09-12T02:03:42;25.60;50.00
12329;DHT22;6230;52.390;10.256;2023-09-12T02:06:08;25.70;50.00
12329;DHT22;6230;52.390;10.256;2023-09-12T02:08:33;25.70;50.00
12329;DHT22;6230;52.390;10.256;2023-09-12T02:10:59;25.70;49.90
12329;DHT22;6230;52.390;10.256;2023-09-12T02:13:24;25.70;50.50
12329;DHT22;6230;52.390;10.256;2023-09-12T02:15:50;25.70;49.80
12329;DHT22;6230;52.390;10.256;2023-09-12T02:18:15;25.80;49.90
12329;DHT22;6230;52.390;10.256;2023-09-12T02:20:41;25.80;49.80
12329;DHT22;6230;52.390;10.256;2023-09-12T02:23:11;25.80;49.80
12329;DHT22;6230;52.390;10.256;2023-09-12T02:25:37;25.80;49.80
12329;DHT22;6230;52.390;10.256;2023-09-12T02:28:02;25.70;49.70
12329;DHT22;6230;52.390;10.256;2023-09-12T02:30:28;25.70;49.70
12329;DHT22;6230;52.390;10.256;2023-09-12T02:32:54;25.70;49.80
12329;DHT22;6230;52.390;10.256;2023-09-12T02:35:19;25.70;49.80
12329;DHT22;6230;52.390;10.256;2023-09-12T02:37:45;25.70;49.80
12329;DHT22;6230;52.390;10.256;2023-09-12T02:40:11;25.70;49.90
12329;DHT22;6230;52.390;10.256;2023-09-12T02:42:37;25.60;49.90
12329;DHT22;6230;52.390;10.256;2023-09-12T02:45:03;25.60;49.90
12329;DHT22;6230;52.390;10.256;2023-09-12T02:47:29;25.50;50.00
12329;DHT22;6230;52.390;10.256;2023-09-12T02:49:55;25.50;50.00
12329;DHT22;6230;52.390;10.256;2023-09-12T02:52:20;25.40;50.00
12329;DHT22;6230;52.390;10.256;2023-09-12T02:54:46;25.40;50.10
12329;DHT22;6230;52.390;10.256;2023-09-12T02:57:11;25.30;50.00
12329;DHT22;6230;52.390;10.256;2023-09-12T02:59:37;25.30;50.00
12329;DHT22;6230;52.390;10.256;2023-09-12T03:02:02;25.30;50.10
12329;DHT22;6230;52.390;10.256;2023-09-12T03:04:29;25.30;50.20
12329;DHT22;6230;52.390;10.256;2023-09-12T03:06:55;25.20;50.10
12329;DHT22;6230;52.390;10.256;2023-09-12T03:09:20;25.20;50.20
12329;DHT22;6230;52.390;10.256;2023-09-12T03:11:48;25.20;50.40
12329;DHT22;6230;52.390;10.256;2023-09-12T03:14:14;25.10;50.20
12329;DHT22;6230;52.390;10.256;2023-09-12T03:16:40;25.10;50.20
12329;DHT22;6230;52.390;10.256;2023-09-12T03:19:05;25.10;50.20
12329;DHT22;6230;52.390;10.256;2023-09-12T03:21:31;25.10;50.30
12329;DHT22;6230;52.390;10.256;2023-09-12T03:23:57;25.00;50.30
12329;DHT22;6230;52.390;10.256;2023-09-12T03:26:22;24.90;50.40
12329;DHT22;6230;52.390;10.256;2023-09-12T03:28:49;24.90;50.50
12329;DHT22;6230;52.390;10.256;2023-09-12T03:31:16;24.90;50.50
12329;DHT22;6230;52.390;10.256;2023-09-12T03:33:42;24.90;50.50
12329;DHT22;6230;52.390;10.256;2023-09-12T03:36:09;24.80;50.60
12329;DHT22;6230;52.390;10.256;2023-09-12T03:38:35;24.80;50.60
12329;DHT22;6230;52.390;10.256;2023-09-12T03:41:01;24.70;50.70
12329;DHT22;6230;52.390;10.256;2023-09-12T03:43:27;24.70;50.70
12329;DHT22;6230;52.390;10.256;2023-09-12T03:45:53;24.70;50.70
12329;DHT22;6230;52.390;10.256;2023-09-12T03:48:19;24.80;50.70
12329;DHT22;6230;52.390;10.256;2023-09-12T03:50:45;24.80;50.70
12329;DHT22;6230;52.390;10.256;2023-09-12T03:53:10;24.80;50.70
12329;DHT22;6230;52.390;10.256;2023-09-12T03:55:36;24.80;50.60
12329;DHT22;6230;52.390;10.256;2023-09-12T03:58:01;24.90;50.70
12329;DHT22;6230;52.390;10.256;2023-09-12T04:00:27;24.90;50.60
12329;DHT22;6230;52.390;10.256;2023-09-12T04:02:53;24.90;50.70
12329;DHT22;6230;52.390;10.256;2023-09-12T04:05:18;24.90;50.50
12329;DHT22;6230;52.390;10.256;2023-09-12T04:07:44;24.90;50.60
12329;DHT22;6230;52.390;10.256;2023-09-12T04:10:09;24.90;50.60
12329;DHT22;6230;52.390;10.256;2023-09-12T04:12:35;24.80;50.60
12329;DHT22;6230;52.390;10.256;2023-09-12T04:15:00;24.80;50.70
12329;DHT22;6230;52.390;10.256;2023-09-12T04:17:26;24.80;50.70
12329;DHT22;6230;52.390;10.256;2023-09-12T04:19:51;24.70;50.80
12329;DHT22;6230;52.390;10.256;2023-09-12T04:22:17;24.70;50.80
12329;DHT22;6230;52.390;10.256;2023-09-12T04:24:42;24.60;50.90
12329;DHT22;6230;52.390;10.256;2023-09-12T04:27:08;24.50;51.00
12329;DHT22;6230;52.390;10.256;2023-09-12T04:29:34;24.50;51.20
12329;DHT22;6230;52.390;10.256;2023-09-12T04:32:03;24.40;51.30
12329;DHT22;6230;52.390;10.256;2023-09-12T04:34:30;24.30;51.40
12329;DHT22;6230;52.390;10.256;2023-09-12T04:36:56;24.30;51.40
12329;DHT22;6230;52.390;10.256;2023-09-12T04:39:21;24.40;51.40
12329;DHT22;6230;52.390;10.256;2023-09-12T04:41:47;24.30;51.40
12329;DHT22;6230;52.390;10.256;2023-09-12T04:44:12;24.30;51.40
12329;DHT22;6230;52.390;10.256;2023-09-12T04:46:38;24.30;51.40
12329;DHT22;6230;52.390;10.256;2023-09-12T04:49:03;24.30;51.50
12329;DHT22;6230;52.390;10.256;2023-09-12T04:51:29;24.40;51.50
12329;DHT22;6230;52.390;10.256;2023-09-12T04:53:55;24.30;51.50
12329;DHT22;6230;52.390;10.256;2023-09-12T04:56:20;24.40;51.60
12329;DHT22;6230;52.390;10.256;2023-09-12T04:58:46;24.40;51.50
12329;DHT22;6230;52.390;10.256;2023-09-12T05:01:12;24.40;51.50
12329;DHT22;6230;52.390;10.256;2023-09-12T05:03:37;24.40;51.60
12329;DHT22;6230;52.390;10.256;2023-09-12T05:06:03;24.40;51.60
12329;DHT22;6230;52.390;10.256;2023-09-12T05:08:29;24.40;51.60
12329;DHT22;6230;52.390;10.256;2023-09-12T05:10:55;24.40;51.70
12329;DHT22;6230;52.390;10.256;2023-09-12T05:13:20;24.40;51.70
12329;DHT22;6230;52.390;10.256;2023-09-12T05:15:46;24.40;51.70
12329;DHT22;6230;52.390;10.256;2023-09-12T05:18:12;24.40;51.70
12329;DHT22;6230;52.390;10.256;2023-09-12T05:20:38;24.40;51.80
12329;DHT22;6230;52.390;10.256;2023-09-12T05:23:03;24.40;52.40
12329;DHT22;6230;52.390;10.256;2023-09-12T05:25:29;24.50;51.80
12329;DHT22;6230;52.390;10.256;2023-09-12T05:27:56;24.50;51.80
12329;DHT22;6230;52.390;10.256;2023-09-12T05:30:22;24.50;51.70
12329;DHT22;6230;52.390;10.256;2023-09-12T05:32:47;24.60;51.70
12329;DHT22;6230;52.390;10.256;2023-09-12T05:35:13;24.60;51.70
12329;DHT22;6230;52.390;10.256;2023-09-12T05:37:38;24.70;51.70
12329;DHT22;6230;52.390;10.256;2023-09-12T05:40:04;24.70;51.70
12329;DHT22;6230;52.390;10.256;2023-09-12T05:42:31;24.70;51.60
12329;DHT22;6230;52.390;10.256;2023-09-12T05:44:56;24.70;51.60
12329;DHT22;6230;52.390;10.256;2023-09-12T05:47:22;24.70;51.50
12329;DHT22;6230;52.390;10.256;2023-09-12T05:49:48;24.80;51.60
12329;DHT22;6230;52.390;10.256;2023-09-12T05:52:13;24.90;51.50
12329;DHT22;6230;52.390;10.256;2023-09-12T05:54:39;24.80;51.50
12329;DHT22;6230;52.390;10.256;2023-09-12T05:57:06;24.80;51.50
12329;DHT22;6230;52.390;10.256;2023-09-12T05:59:32;24.80;51.60
12329;DHT22;6230;52.390;10.256;2023-09-12T06:01:58;24.80;51.60
12329;DHT22;6230;52.390;10.256;2023-09-12T06:04:24;24.80;51.60
12329;DHT22;6230;52.390;10.256;2023-09-12T06:06:49;24.70;51.70
12329;DHT22;6230;52.390;10.256;2023-09-12T06:09:15;24.70;51.80
12329;DHT22;6230;52.390;10.256;2023-09-12T06:11:40;24.70;51.80
12329;DHT22;6230;52.390;10.256;2023-09-12T06:14:06;24.70;51.90
12329;DHT22;6230;52.390;10.256;2023-09-12T06:16:31;24.60;51.80
12329;DHT22;6230;52.390;10.256;2023-09-12T06:18:57;24.60;51.80
12329;DHT22;6230;52.390;10.256;2023-09-12T06:21:22;24.70;51.90
12329;DHT22;6230;52.390;10.256;2023-09-12T06:23:52;24.60;51.80
12329;DHT22;6230;52.390;10.256;2023-09-12T06:26:32;24.60;52.00
12329;DHT22;6230;52.390;10.256;2023-09-12T06:28:58;24.50;52.10
12329;DHT22;6230;52.390;10.256;2023-09-12T06:31:24;24.50;52.30
12329;DHT22;6230;52.390;10.256;2023-09-12T06:33:49;24.40;52.30
12329;DHT22;6230;52.390;10.256;2023-09-12T06:36:15;24.30;52.50
12329;DHT22;6230;52.390;10.256;2023-09-12T06:38:40;24.20;52.50
12329;DHT22;6230;52.390;10.256;2023-09-12T06:41:06;24.10;52.60
12329;DHT22;6230;52.390;10.256;2023-09-12T06:43:31;24.10;52.70
12329;DHT22;6230;52.390;10.256;2023-09-12T06:45:57;24.10;52.70
12329;DHT22;6230;52.390;10.256;2023-09-12T06:48:22;24.10;52.60
12329;DHT22;6230;52.390;10.256;2023-09-12T06:50:48;24.10;52.60
12329;DHT22;6230;52.390;10.256;2023-09-12T06:53:15;24.10;52.60
12329;DHT22;6230;52.390;10.256;2023-09-12T06:55:41;24.20;52.60
12329;DHT22;6230;52.390;10.256;2023-09-12T06:58:06;24.20;52.50
12329;DHT22;6230;52.390;10.256;2023-09-12T07:00:33;24.30;52.50
12329;DHT22;6230;52.390;10.256;2023-09-12T07:02:58;24.30;52.50
12329;DHT22;6230;52.390;10.256;2023-09-12T07:05:24;24.10;53.80
12329;DHT22;6230;52.390;10.256;2023-09-12T07:07:50;24.00;54.90
12329;DHT22;6230;52.390;10.256;2023-09-12T07:10:15;23.80;55.50
12329;DHT22;6230;52.390;10.256;2023-09-12T07:12:41;23.70;55.80
12329;DHT22;6230;52.390;10.256;2023-09-12T07:15:06;23.60;56.20
12329;DHT22;6230;52.390;10.256;2023-09-12T07:17:32;23.50;56.50
12329;DHT22;6230;52.390;10.256;2023-09-12T07:19:58;23.40;56.90
12329;DHT22;6230;52.390;10.256;2023-09-12T07:22:23;23.30;56.90
12329;DHT22;6230;52.390;10.256;2023-09-12T07:24:49;23.40;56.90
12329;DHT22;6230;52.390;10.256;2023-09-12T07:27:14;23.40;57.10
12329;DHT22;6230;52.390;10.256;2023-09-12T07:29:40;23.20;57.40
12329;DHT22;6230;52.390;10.256;2023-09-12T07:32:05;23.20;57.40
12329;DHT22;6230;52.390;10.256;2023-09-12T07:34:31;23.20;57.20
12329;DHT22;6230;52.390;10.256;2023-09-12T07:36:56;23.20;57.10
12329;DHT22;6230;52.390;10.256;2023-09-12T07:39:22;23.20;56.80
12329;DHT22;6230;52.390;10.256;2023-09-12T07:41:48;23.20;56.60
12329;DHT22;6230;52.390;10.256;2023-09-12T07:44:13;23.30;56.40
12329;DHT22;6230;52.390;10.256;2023-09-12T07:46:41;23.30;56.70
12329;DHT22;6230;52.390;10.256;2023-09-12T07:49:06;23.20;57.30
12329;DHT22;6230;52.390;10.256;2023-09-12T07:51:34;23.20;57.80
12329;DHT22;6230;52.390;10.256;2023-09-12T07:54:00;23.20;57.90
12329;DHT22;6230;52.390;10.256;2023-09-12T07:56:26;23.10;57.80
12329;DHT22;6230;52.390;10.256;2023-09-12T07:58:51;23.10;57.90
12329;DHT22;6230;52.390;10.256;2023-09-12T08:01:17;23.10;59.10
12329;DHT22;6230;52.390;10.256;2023-09-12T08:03:43;23.10;59.90
12329;DHT22;6230;52.390;10.256;2023-09-12T08:06:09;23.00;61.80
12329;DHT22;6230;52.390;10.256;2023-09-12T08:08:35;22.90;61.50
12329;DHT22;6230;52.390;10.256;2023-09-12T08:11:01;22.90;62.40
12329;DHT22;6230;52.390;10.256;2023-09-12T08:13:28;22.90;62.30
12329;DHT22;6230;52.390;10.256;2023-09-12T08:15:55;22.90;62.30
12329;DHT22;6230;52.390;10.256;2023-09-12T08:18:21;22.90;61.70
12329;DHT22;6230;52.390;10.256;2023-09-12T08:20:47;22.90;61.50
12329;DHT22;6230;52.390;10.256;2023-09-12T08:23:12;23.00;61.50
12329;DHT22;6230;52.390;10.256;2023-09-12T08:25:39;23.00;61.20
12329;DHT22;6230;52.390;10.256;2023-09-12T08:28:05;23.10;60.80
12329;DHT22;6230;52.390;10.256;2023-09-12T08:30:31;23.30;60.40
12329;DHT22;6230;52.390;10.256;2023-09-12T08:32:56;23.40;60.00
12329;DHT22;6230;52.390;10.256;2023-09-12T08:35:22;23.50;59.80
12329;DHT22;6230;52.390;10.256;2023-09-12T08:37:47;23.60;59.60
12329;DHT22;6230;52.390;10.256;2023-09-12T08:40:13;23.70;59.40
12329;DHT22;6230;52.390;10.256;2023-09-12T08:42:41;23.80;59.20
12329;DHT22;6230;52.390;10.256;2023-09-12T08:45:16;23.90;59.00
12329;DHT22;6230;52.390;10.256;2023-09-12T08:47:49;24.00;58.70
12329;DHT22;6230;52.390;10.256;2023-09-12T08:50:16;24.10;58.50
12329;DHT22;6230;52.390;10.256;2023-09-12T08:52:43;24.10;58.40
12329;DHT22;6230;52.390;10.256;2023-09-12T08:55:09;24.20;58.20
12329;DHT22;6230;52.390;10.256;2023-09-12T08:57:40;24.30;58.20
12329;DHT22;6230;52.390;10.256;2023-09-12T09:00:06;24.40;58.10
12329;DHT22;6230;52.390;10.256;2023-09-12T09:02:35;24.40;58.00
12329;DHT22;6230;52.390;10.256;2023-09-12T09:05:06;24.50;57.90
12329;DHT22;6230;52.390;10.256;2023-09-12T09:07:33;24.60;57.80
12329;DHT22;6230;52.390;10.256;2023-09-12T09:10:05;24.60;57.70
12329;DHT22;6230;52.390;10.256;2023-09-12T09:12:32;24.60;57.60
12329;DHT22;6230;52.390;10.256;2023-09-12T09:14:57;24.60;57.50
12329;DHT22;6230;52.390;10.256;2023-09-12T09:17:23;24.60;57.50
12329;DHT22;6230;52.390;10.256;2023-09-12T09:19:49;24.70;57.50
12329;DHT22;6230;52.390;10.256;2023-09-12T09:22:15;24.70;57.40
12329;DHT22;6230;52.390;10.256;2023-09-12T09:24:41;24.80;57.40
12329;DHT22;6230;52.390;10.256;2023-09-12T09:27:07;24.80;57.40
12329;DHT22;6230;52.390;10.256;2023-09-12T09:29:46;24.80;57.20
12329;DHT22;6230;52.390;10.256;2023-09-12T09:32:17;24.90;57.30
12329;DHT22;6230;52.390;10.256;2023-09-12T09:34:43;24.90;57.10
12329;DHT22;6230;52.390;10.256;2023-09-12T09:37:09;24.90;57.10
12329;DHT22;6230;52.390;10.256;2023-09-12T09:39:35;24.90;57.00
12329;DHT22;6230;52.390;10.256;2023-09-12T09:42:01;24.90;57.00
12329;DHT22;6230;52.390;10.256;2023-09-12T09:44:27;24.90;57.00
12329;DHT22;6230;52.390;10.256;2023-09-12T09:47:00;24.90;57.00
12329;DHT22;6230;52.390;10.256;2023-09-12T09:49:28;24.90;57.00
12329;DHT22;6230;52.390;10.256;2023-09-12T09:51:56;24.90;57.00
12329;DHT22;6230;52.390;10.256;2023-09-12T09:54:24;25.00;57.00
12329;DHT22;6230;52.390;10.256;2023-09-12T09:56:54;25.00;57.10
12329;DHT22;6230;52.390;10.256;2023-09-12T09:59:27;25.10;57.00
12329;DHT22;6230;52.390;10.256;2023-09-12T10:01:57;25.10;57.00
12329;DHT22;6230;52.390;10.256;2023-09-12T10:04:23;25.20;57.00
12329;DHT22;6230;52.390;10.256;2023-09-12T10:06:49;25.20;57.00
12329;DHT22;6230;52.390;10.256;2023-09-12T10:09:16;25.30;57.00
12329;DHT22;6230;52.390;10.256;2023-09-12T10:11:46;25.30;56.90
12329;DHT22;6230;52.390;10.256;2023-09-12T10:14:13;25.30;56.90
12329;DHT22;6230;52.390;10.256;2023-09-12T10:16:50;25.30;56.90
12329;DHT22;6230;52.390;10.256;2023-09-12T10:19:20;25.40;56.90
12329;DHT22;6230;52.390;10.256;2023-09-12T10:21:59;25.40;56.70
12329;DHT22;6230;52.390;10.256;2023-09-12T10:24:30;25.50;56.80
12329;DHT22;6230;52.390;10.256;2023-09-12T10:26:57;25.50;56.70
12329;DHT22;6230;52.390;10.256;2023-09-12T10:29:23;25.50;56.60
12329;DHT22;6230;52.390;10.256;2023-09-12T10:31:49;25.50;56.60
12329;DHT22;6230;52.390;10.256;2023-09-12T10:34:15;25.50;56.60
12329;DHT22;6230;52.390;10.256;2023-09-12T10:36:42;25.60;56.60
12329;DHT22;6230;52.390;10.256;2023-09-12T10:39:13;25.60;56.60
12329;DHT22;6230;52.390;10.256;2023-09-12T10:41:40;25.70;56.60
12329;DHT22;6230;52.390;10.256;2023-09-12T10:44:11;25.70;56.50
12329;DHT22;6230;52.390;10.256;2023-09-12T10:46:40;25.80;56.50
12329;DHT22;6230;52.390;10.256;2023-09-12T10:49:10;25.70;56.40
12329;DHT22;6230;52.390;10.256;2023-09-12T10:51:41;25.70;56.50
12329;DHT22;6230;52.390;10.256;2023-09-12T10:54:08;25.70;56.50
12329;DHT22;6230;52.390;10.256;2023-09-12T10:56:34;25.60;56.50
12329;DHT22;6230;52.390;10.256;2023-09-12T11:01:44;25.60;56.60
12329;DHT22;6230;52.390;10.256;2023-09-12T11:06:49;25.70;56.60
12329;DHT22;6230;52.390;10.256;2023-09-12T11:11:42;25.70;56.50
12329;DHT22;6230;52.390;10.256;2023-09-12T11:14:08;25.70;56.50
12329;DHT22;6230;52.390;10.256;2023-09-12T11:16:34;25.60;56.50
12329;DHT22;6230;52.390;10.256;2023-09-12T11:19:16;25.60;56.50
12329;DHT22;6230;52.390;10.256;2023-09-12T11:21:47;25.70;56.50
12329;DHT22;6230;52.390;10.256;2023-09-12T11:24:14;25.70;56.40
12329;DHT22;6230;52.390;10.256;2023-09-12T11:26:55;25.80;56.40
12329;DHT22;6230;52.390;10.256;2023-09-12T11:29:21;25.80;56.40
12329;DHT22;6230;52.390;10.256;2023-09-12T11:31:55;25.80;56.20
12329;DHT22;6230;52.390;10.256;2023-09-12T11:34:25;25.80;56.20
12329;DHT22;6230;52.390;10.256;2023-09-12T11:36:58;25.80;56.20
12329;DHT22;6230;52.390;10.256;2023-09-12T11:39:32;25.80;56.10
12329;DHT22;6230;52.390;10.256;2023-09-12T11:41:59;25.80;56.20
12329;DHT22;6230;52.390;10.256;2023-09-12T11:44:26;25.80;56.20
12329;DHT22;6230;52.390;10.256;2023-09-12T11:46:52;25.80;56.20
12329;DHT22;6230;52.390;10.256;2023-09-12T11:49:19;25.80;56.20
12329;DHT22;6230;52.390;10.256;2023-09-12T11:51:51;25.70;56.20
12329;DHT22;6230;52.390;10.256;2023-09-12T11:54:19;25.50;56.20
12329;DHT22;6230;52.390;10.256;2023-09-12T11:56:47;25.40;56.30
12329;DHT22;6230;52.390;10.256;2023-09-12T11:59:14;25.30;56.30
12329;DHT22;6230;52.390;10.256;2023-09-12T12:01:39;25.30;56.40
12329;DHT22;6230;52.390;10.256;2023-09-12T12:04:05;25.20;56.40
12329;DHT22;6230;52.390;10.256;2023-09-12T12:06:32;25.10;56.40
12329;DHT22;6230;52.390;10.256;2023-09-12T12:08:58;25.10;56.40
12329;DHT22;6230;52.390;10.256;2023-09-12T12:11:27;25.10;56.40
12329;DHT22;6230;52.390;10.256;2023-09-12T12:13:53;25.10;56.40
12329;DHT22;6230;52.390;10.256;2023-09-12T12:16:19;25.10;56.30
12329;DHT22;6230;52.390;10.256;2023-09-12T12:18:45;25.10;56.30
12329;DHT22;6230;52.390;10.256;2023-09-12T12:21:11;25.10;56.30
12329;DHT22;6230;52.390;10.256;2023-09-12T12:23:36;25.10;56.20
12329;DHT22;6230;52.390;10.256;2023-09-12T12:26:09;25.10;56.20
12329;DHT22;6230;52.390;10.256;2023-09-12T12:28:38;25.10;56.10
12329;DHT22;6230;52.390;10.256;2023-09-12T12:31:04;25.10;56.10
12329;DHT22;6230;52.390;10.256;2023-09-12T12:33:30;25.10;56.10
12329;DHT22;6230;52.390;10.256;2023-09-12T12:36:03;25.00;56.10
12329;DHT22;6230;52.390;10.256;2023-09-12T12:38:37;25.00;56.20
12329;DHT22;6230;52.390;10.256;2023-09-12T12:41:03;24.90;56.20
12329;DHT22;6230;52.390;10.256;2023-09-12T12:43:29;25.00;56.20
12329;DHT22;6230;52.390;10.256;2023-09-12T12:45:56;25.00;56.20
12329;DHT22;6230;52.390;10.256;2023-09-12T12:48:32;25.00;56.10
12329;DHT22;6230;52.390;10.256;2023-09-12T12:50:59;25.10;56.10
12329;DHT22;6230;52.390;10.256;2023-09-12T12:53:38;25.10;56.10
12329;DHT22;6230;52.390;10.256;2023-09-12T12:56:04;24.90;56.10
12329;DHT22;6230;52.390;10.256;2023-09-12T12:58:29;24.90;56.10
12329;DHT22;6230;52.390;10.256;2023-09-12T13:00:55;24.70;56.30
12329;DHT22;6230;52.390;10.256;2023-09-12T13:03:20;24.60;56.40
12329;DHT22;6230;52.390;10.256;2023-09-12T13:05:46;24.50;56.40
12329;DHT22;6230;52.390;10.256;2023-09-12T13:08:11;24.50;56.50
12329;DHT22;6230;52.390;10.256;2023-09-12T13:10:37;24.40;56.50
12329;DHT22;6230;52.390;10.256;2023-09-12T13:13:03;24.50;56.50
12329;DHT22;6230;52.390;10.256;2023-09-12T13:15:29;24.50;56.50
12329;DHT22;6230;52.390;10.256;2023-09-12T13:17:55;24.50;56.40
12329;DHT22;6230;52.390;10.256;2023-09-12T13:20:20;24.60;56.40
12329;DHT22;6230;52.390;10.256;2023-09-12T13:22:46;24.70;56.30
12329;DHT22;6230;52.390;10.256;2023-09-12T13:25:11;24.70;56.60
12329;DHT22;6230;52.390;10.256;2023-09-12T13:27:37;24.60;56.90
12329;DHT22;6230;52.390;10.256;2023-09-12T13:30:03;24.50;57.00
12329;DHT22;6230;52.390;10.256;2023-09-12T13:32:29;24.40;57.10
12329;DHT22;6230;52.390;10.256;2023-09-12T13:34:54;24.50;57.10
12329;DHT22;6230;52.390;10.256;2023-09-12T13:37:20;24.50;57.20
12329;DHT22;6230;52.390;10.256;2023-09-12T13:39:46;24.40;57.50
12329;DHT22;6230;52.390;10.256;2023-09-12T13:42:14;24.40;58.10
12329;DHT22;6230;52.390;10.256;2023-09-12T13:44:44;24.30;58.40
12329;DHT22;6230;52.390;10.256;2023-09-12T13:47:10;24.40;58.10
12329;DHT22;6230;52.390;10.256;2023-09-12T13:49:35;24.40;58.20
12329;DHT22;6230;52.390;10.256;2023-09-12T13:52:01;24.30;58.40
12329;DHT22;6230;52.390;10.256;2023-09-12T13:54:27;24.40;58.30
12329;DHT22;6230;52.390;10.256;2023-09-12T13:56:53;24.40;58.30
12329;DHT22;6230;52.390;10.256;2023-09-12T13:59:18;24.50;58.30
12329;DHT22;6230;52.390;10.256;2023-09-12T14:01:46;24.50;58.40
12329;DHT22;6230;52.390;10.256;2023-09-12T14:04:11;24.50;58.40
12329;DHT22;6230;52.390;10.256;2023-09-12T14:06:38;24.50;58.70
12329;DHT22;6230;52.390;10.256;2023-09-12T14:09:04;24.50;58.70
12329;DHT22;6230;52.390;10.256;2023-09-12T14:11:30;24.60;58.70
12329;DHT22;6230;52.390;10.256;2023-09-12T14:13:56;24.80;58.60
12329;DHT22;6230;52.390;10.256;2023-09-12T14:16:21;24.90;58.50
12329;DHT22;6230;52.390;10.256;2023-09-12T14:18:47;25.20;58.50
12329;DHT22;6230;52.390;10.256;2023-09-12T14:21:12;25.40;58.90
12329;DHT22;6230;52.390;10.256;2023-09-12T14:23:39;25.50;58.10
12329;DHT22;6230;52.390;10.256;2023-09-12T14:26:05;25.60;58.00
12329;DHT22;6230;52.390;10.256;2023-09-12T14:28:30;25.80;58.00
12329;DHT22;6230;52.390;10.256;2023-09-12T14:30:57;25.90;57.70
12329;DHT22;6230;52.390;10.256;2023-09-12T14:33:23;26.10;57.60
12329;DHT22;6230;52.390;10.256;2023-09-12T14:35:49;26.10;57.50
12329;DHT22;6230;52.390;10.256;2023-09-12T14:38:14;26.20;57.30
12329;DHT22;6230;52.390;10.256;2023-09-12T14:40:40;26.30;57.30
12329;DHT22;6230;52.390;10.256;2023-09-12T14:43:05;26.30;57.10
12329;DHT22;6230;52.390;10.256;2023-09-12T14:45:33;26.40;57.10
12329;DHT22;6230;52.390;10.256;2023-09-12T14:47:58;26.50;57.10
12329;DHT22;6230;52.390;10.256;2023-09-12T14:50:24;26.50;56.90
12329;DHT22;6230;52.390;10.256;2023-09-12T14:52:51;26.60;57.00
12329;DHT22;6230;52.390;10.256;2023-09-12T14:55:17;26.60;56.80
12329;DHT22;6230;52.390;10.256;2023-09-12T14:57:42;26.60;56.80
12329;DHT22;6230;52.390;10.256;2023-09-12T15:00:09;26.60;56.90
12329;DHT22;6230;52.390;10.256;2023-09-12T15:02:36;26.50;56.80
12329;DHT22;6230;52.390;10.256;2023-09-12T15:05:03;26.50;56.90
12329;DHT22;6230;52.390;10.256;2023-09-12T15:07:29;26.50;56.90
12329;DHT22;6230;52.390;10.256;2023-09-12T15:09:55;26.50;56.90
12329;DHT22;6230;52.390;10.256;2023-09-12T15:12:20;26.50;56.90
12329;DHT22;6230;52.390;10.256;2023-09-12T15:14:46;26.50;56.90
12329;DHT22;6230;52.390;10.256;2023-09-12T15:17:12;26.50;56.90
12329;DHT22;6230;52.390;10.256;2023-09-12T15:19:37;26.50;56.80
12329;DHT22;6230;52.390;10.256;2023-09-12T15:22:03;26.50;56.90
12329;DHT22;6230;52.390;10.256;2023-09-12T15:24:28;26.40;56.80
12329;DHT22;6230;52.390;10.256;2023-09-12T15:26:54;26.40;56.80
12329;DHT22;6230;52.390;10.256;2023-09-12T15:29:19;26.40;57.40
12329;DHT22;6230;52.390;10.256;2023-09-12T15:31:45;26.40;56.70
12329;DHT22;6230;52.390;10.256;2023-09-12T15:34:11;26.40;56.70